Terminal Aerodrome Forecast
Issued by NWS

Home | Current Version | Previous Version | Text Only | Print | Product List | Glossary On
Versions: 1 2 3 4 5 6 7 8 9 10 11 12 13 14 15 16 17 18 19 20
000
FTUS41 KBGM 281736
TAFRME
TAF
KRME 281736Z 2818/2918 11015G25KT P6SM BKN025
     FM282100 11015G25KT P6SM SCT025 BKN040
     FM290300 10008KT P6SM SCT040 BKN080
     FM291100 10010KT P6SM BKN030 OVC050=

USA.gov is the U.S. government's official web portal to all federal, state and local government web resources and services.